Time;durP1;ratioP1;P1;durP2;ratioP2;P2;SDS_P1;SDS_P2;PMS_P1;PMS_P2;Temp;Humidity;BMP_temperature;BMP_pressure;BME280_temperature;BME280_humidity;BME280_pressure;Samples;Min_cycle;Max_cycle;Signal;HPM_P1;HPM_P2
2022/11/09 10:18:15;;;;;;;5.50;4.07;;;;;;;;;;5140407;23;20553;-83
2022/11/09 10:20:49;;;;;;;5.80;4.43;;;;;;;;;;5033792;28;20084;-86
2022/11/09 12:39:37;;;;;;;6.43;4.50;;;;;;;;;;6060366;23;20108;31
2022/11/09 12:42:09;;;;;;;5.15;4.63;;;;;;;;;;4921906;29;20059;-89
2022/11/09 18:31:51;;;;;;;6.63;5.93;;;;;;;;;;4856639;26;20048;-91
2022/11/09 18:34:17;;;;;;;8.18;5.78;;;;;;;;;;4916858;29;20040;-91
2022/11/09 18:36:42;;;;;;;8.80;5.55;;;;;;;;;;4901626;29;20118;-94
2022/11/09 18:39:08;;;;;;;7.15;5.82;;;;;;;;;;4905146;29;20103;-93
2022/11/09 18:41:33;;;;;;;10.40;7.07;;;;;;;;;;4937388;29;20038;-93
2022/11/09 18:43:59;;;;;;;10.15;7.47;;;;;;;;;;4939279;29;20430;-96
2022/11/09 18:46:28;;;;;;;9.52;8.27;;;;;;;;;;4942482;29;20118;-96
2022/11/09 18:48:54;;;;;;;;;;;;;;;;;;4939377;29;20438;-91
2022/11/09 18:51:19;;;;;;;11.65;8.50;;;;;;;;;;4920908;29;19915;-93
2022/11/09 18:53:46;;;;;;;9.00;8.10;;;;;;;;;;4937642;29;20039;-94
2022/11/09 18:56:20;;;;;;;11.65;8.05;;;;;;;;;;4920617;29;20043;-95
2022/11/09 18:58:47;;;;;;;9.43;8.23;;;;;;;;;;4937011;29;20091;-95
2022/11/09 19:01:13;;;;;;;10.15;8.23;;;;;;;;;;4921249;29;20046;-95
2022/11/09 19:03:39;;;;;;;9.75;7.65;;;;;;;;;;4937095;29;20118;-93
2022/11/09 19:06:16;;;;;;;9.18;7.63;;;;;;;;;;4937181;29;20436;-93
2022/11/09 19:11:28;;;;;;;9.88;7.72;;;;;;;;;;4937828;29;20140;-93
2022/11/09 19:13:54;;;;;;;9.45;7.50;;;;;;;;;;4936664;29;20039;-90
2022/11/09 19:16:20;;;;;;;12.05;9.05;;;;;;;;;;4936902;29;20420;-90
2022/11/09 19:18:45;;;;;;;11.65;8.10;;;;;;;;;;4936985;29;20024;-87
2022/11/09 19:21:26;;;;;;;9.55;7.93;;;;;;;;;;4939000;29;20463;-90
2022/11/09 19:23:52;;;;;;;9.32;6.97;;;;;;;;;;4923983;29;20035;-90
2022/11/09 19:26:19;;;;;;;8.20;6.60;;;;;;;;;;4923282;29;20061;-89
2022/11/09 19:28:44;;;;;;;10.55;7.20;;;;;;;;;;4941528;29;20028;-94
2022/11/09 19:31:15;;;;;;;7.80;7.00;;;;;;;;;;4941061;29;20028;-90
2022/11/09 19:33:40;;;;;;;11.43;7.60;;;;;;;;;;4958869;29;20043;-87
2022/11/09 19:36:07;;;;;;;10.07;7.70;;;;;;;;;;4963278;28;20418;-93
2022/11/09 19:38:32;;;;;;;9.73;7.35;;;;;;;;;;4952781;28;20026;-94
2022/11/09 19:40:58;;;;;;;10.85;7.93;;;;;;;;;;4962885;28;20126;-93
2022/11/09 19:43:23;;;;;;;9.95;7.55;;;;;;;;;;4979280;28;20058;-93
2022/11/09 19:45:49;;;;;;;12.43;8.70;;;;;;;;;;4963112;28;20425;-93
2022/11/09 19:48:14;;;;;;;8.85;7.43;;;;;;;;;;4963146;28;20027;-93
2022/11/09 19:50:46;;;;;;;11.15;7.20;;;;;;;;;;4966944;28;20041;-92
2022/11/09 19:53:11;;;;;;;11.60;7.45;;;;;;;;;;4958462;28;20058;-94
2022/11/09 19:55:37;;;;;;;9.95;7.25;;;;;;;;;;4955454;28;20524;-96
2022/11/09 19:58:06;;;;;;;9.90;7.47;;;;;;;;;;4976735;28;20037;-94
2022/11/09 20:00:36;;;;;;;9.02;7.03;;;;;;;;;;4970643;28;20030;-94
2022/11/09 20:03:02;;;;;;;9.40;7.32;;;;;;;;;;4964458;28;20026;-94
2022/11/09 20:05:30;;;;;;;12.13;8.18;;;;;;;;;;4963514;28;20108;-95
2022/11/09 20:07:56;;;;;;;9.90;7.60;;;;;;;;;;4961556;28;20389;-91
2022/11/09 20:10:22;;;;;;;11.95;7.60;;;;;;;;;;4958460;28;20023;-92
2022/11/09 20:12:50;;;;;;;7.53;6.75;;;;;;;;;;4942224;29;20059;-94
2022/11/09 20:15:20;;;;;;;7.32;6.63;;;;;;;;;;4942119;28;20031;-93
2022/11/09 20:17:46;;;;;;;9.32;7.25;;;;;;;;;;4942186;29;20031;-93
2022/11/09 20:20:15;;;;;;;8.30;7.30;;;;;;;;;;4942665;29;20045;-93
2022/11/09 20:22:41;;;;;;;9.38;8.43;;;;;;;;;;4943581;29;20050;-95
2022/11/09 20:25:10;;;;;;;10.65;6.78;;;;;;;;;;4962085;28;20059;-94
2022/11/09 20:27:36;;;;;;;10.88;6.57;;;;;;;;;;4942718;28;20039;-94
2022/11/09 20:30:02;;;;;;;8.68;5.93;;;;;;;;;;4943494;29;20043;-93
2022/11/09 20:32:27;;;;;;;7.75;7.03;;;;;;;;;;4941334;29;20524;-94
2022/11/09 20:34:53;;;;;;;9.18;6.63;;;;;;;;;;4942334;29;20027;-92
2022/11/09 20:37:18;;;;;;;8.07;6.70;;;;;;;;;;4942680;29;20360;-92
2022/11/09 20:39:44;;;;;;;8.30;7.20;;;;;;;;;;4944078;29;20470;-94
2022/11/09 20:42:48;;;;;;;9.25;7.65;;;;;;;;;;4943769;29;20382;-95
2022/11/09 20:45:14;;;;;;;11.60;6.88;;;;;;;;;;4939453;29;20035;-92
2022/11/09 20:47:40;;;;;;;9.07;7.25;;;;;;;;;;4942338;29;20386;-95
2022/11/09 20:50:06;;;;;;;8.90;7.25;;;;;;;;;;4943192;29;20038;-96
2022/11/09 20:52:31;;;;;;;8.90;7.35;;;;;;;;;;4944043;29;20027;-96
2022/11/09 20:54:58;;;;;;;11.45;8.40;;;;;;;;;;4943022;28;20111;-94
2022/11/09 20:57:23;;;;;;;8.82;7.95;;;;;;;;;;4947092;29;20038;-94
2022/11/09 20:59:51;;;;;;;9.88;8.27;;;;;;;;;;4962266;29;20027;-96
2022/11/09 21:02:17;;;;;;;10.38;8.50;;;;;;;;;;4943916;29;20414;-96
2022/11/09 21:04:42;;;;;;;11.98;8.93;;;;;;;;;;4943973;29;20118;-94
2022/11/09 21:07:08;;;;;;;9.77;8.30;;;;;;;;;;4961603;28;20031;-96
2022/11/09 21:09:33;;;;;;;10.85;8.18;;;;;;;;;;4946834;28;20038;-95
2022/11/09 21:14:43;;;;;;;10.95;8.60;;;;;;;;;;4963302;29;20038;-95
2022/11/09 21:17:08;;;;;;;11.05;8.80;;;;;;;;;;4942516;29;20118;-95
2022/11/09 21:19:35;;;;;;;12.13;8.73;;;;;;;;;;4941820;29;20031;-96
2022/11/09 21:22:00;;;;;;;8.80;7.85;;;;;;;;;;4941278;28;20031;-93
2022/11/09 21:29:49;;;;;;;12.38;9.07;;;;;;;;;;4958121;29;20039;-94
2022/11/09 21:30:11;;;;;;;11.32;8.85;;;;;;;;;;4957597;28;20047;-94
2022/11/09 21:32:37;;;;;;;10.95;8.57;;;;;;;;;;4940041;29;20394;-94
2022/11/09 21:35:03;;;;;;;11.57;9.48;;;;;;;;;;4940536;29;20031;-95
2022/11/09 21:37:28;;;;;;;12.90;9.57;;;;;;;;;;4940989;29;20049;-92
2022/11/09 21:39:54;;;;;;;10.98;9.32;;;;;;;;;;4940462;29;20110;-91
2022/11/09 21:42:19;;;;;;;10.35;8.63;;;;;;;;;;4940356;29;20031;-92
2022/11/09 21:44:45;;;;;;;12.10;9.32;;;;;;;;;;4940202;29;20121;-92
2022/11/09 21:47:10;;;;;;;12.02;9.10;;;;;;;;;;4940436;29;20023;-92
2022/11/09 21:49:36;;;;;;;11.88;9.65;;;;;;;;;;4939987;29;20462;-92
2022/11/09 21:52:02;;;;;;;11.50;9.60;;;;;;;;;;4957271;29;20023;-95
2022/11/09 21:54:28;;;;;;;11.18;9.77;;;;;;;;;;4940521;29;20038;-94
2022/11/09 21:56:53;;;;;;;13.38;10.43;;;;;;;;;;4940352;29;20027;-95
2022/11/09 21:59:19;;;;;;;11.00;9.55;;;;;;;;;;4940377;28;20119;-95
2022/11/09 22:01:44;;;;;;;11.48;9.82;;;;;;;;;;4940537;28;20078;-95
2022/11/09 22:04:10;;;;;;;12.68;9.38;;;;;;;;;;4940420;29;20479;-95
2022/11/09 22:06:38;;;;;;;11.27;9.10;;;;;;;;;;4940317;29;20490;-95
2022/11/09 22:09:12;;;;;;;12.57;9.05;;;;;;;;;;4940133;29;20019;-96
2022/11/09 22:17:08;;;;;;;11.18;9.98;;;;;;;;;;4957332;28;20034;-95
2022/11/09 22:22:20;;;;;;;11.77;10.48;;;;;;;;;;4956683;28;20118;-91
2022/11/09 22:24:46;;;;;;;14.10;10.18;;;;;;;;;;4938832;29;20106;-88
2022/11/09 22:27:11;;;;;;;12.15;10.55;;;;;;;;;;4959746;28;20023;-88
2022/11/09 22:29:37;;;;;;;10.65;9.50;;;;;;;;;;4957970;28;20031;-88
2022/11/09 22:32:03;;;;;;;12.35;9.35;;;;;;;;;;4975227;28;20071;-88
2022/11/09 22:34:28;;;;;;;12.32;10.60;;;;;;;;;;4958349;28;20103;-90
2022/11/09 22:36:54;;;;;;;13.32;10.50;;;;;;;;;;4958960;28;20109;-94
2022/11/09 22:39:20;;;;;;;14.23;11.05;;;;;;;;;;4958643;28;20061;-94
2022/11/09 22:41:45;;;;;;;15.82;12.73;;;;;;;;;;4958711;28;20061;-95
2022/11/09 22:44:11;;;;;;;13.23;11.55;;;;;;;;;;4959553;28;20054;-90
